sensor_id;sensor_type;location;lat;lon;timestamp;pressure;altitude;pressure_sealevel;temperature;humidity
73858;BME280;62195;55.030;73.278;2022-09-09T00:03:53;100594.22;;;8.12;77.81
73858;BME280;62195;55.030;73.278;2022-09-09T00:06:30;100592.44;;;8.14;77.82
73858;BME280;62195;55.030;73.278;2022-09-09T00:14:13;100601.19;;;8.13;78.03
73858;BME280;62195;55.030;73.278;2022-09-09T00:16:53;100600.31;;;8.12;78.01
73858;BME280;62195;55.030;73.278;2022-09-09T00:19:28;100596.03;;;8.10;77.77
73858;BME280;62195;55.030;73.278;2022-09-09T00:22:07;100603.09;;;8.08;77.71
73858;BME280;62195;55.030;73.278;2022-09-09T00:27:11;100609.47;;;7.97;78.34
73858;BME280;62195;55.030;73.278;2022-09-09T00:29:45;100602.66;;;7.92;77.95
73858;BME280;62195;55.030;73.278;2022-09-09T00:32:14;100601.09;;;7.86;78.13
73858;BME280;62195;55.030;73.278;2022-09-09T00:34:52;100603.97;;;7.76;78.24
73858;BME280;62195;55.030;73.278;2022-09-09T00:37:19;100598.94;;;7.70;78.73
73858;BME280;62195;55.030;73.278;2022-09-09T00:39:47;100605.25;;;7.63;78.27
73858;BME280;62195;55.030;73.278;2022-09-09T00:42:15;100603.59;;;7.59;78.42
73858;BME280;62195;55.030;73.278;2022-09-09T00:50:05;100592.63;;;7.46;78.44
73858;BME280;62195;55.030;73.278;2022-09-09T00:55:54;100590.34;;;7.35;78.74
73858;BME280;62195;55.030;73.278;2022-09-09T00:58:25;100591.31;;;7.31;78.78
73858;BME280;62195;55.030;73.278;2022-09-09T01:01:02;100594.91;;;7.27;79.03
73858;BME280;62195;55.030;73.278;2022-09-09T01:08:42;100584.63;;;7.20;79.50
73858;BME280;62195;55.030;73.278;2022-09-09T01:11:15;100589.00;;;7.20;80.00
73858;BME280;62195;55.030;73.278;2022-09-09T01:13:45;100589.78;;;7.23;79.64
73858;BME280;62195;55.030;73.278;2022-09-09T01:16:16;100594.06;;;7.26;79.66
73858;BME280;62195;55.030;73.278;2022-09-09T01:18:46;100579.16;;;7.30;79.23
73858;BME280;62195;55.030;73.278;2022-09-09T01:26:28;100590.03;;;7.46;79.74
73858;BME280;62195;55.030;73.278;2022-09-09T01:28:59;100594.31;;;7.48;79.71
73858;BME280;62195;55.030;73.278;2022-09-09T01:31:53;100599.47;;;7.52;79.21
73858;BME280;62195;55.030;73.278;2022-09-09T01:34:20;100602.69;;;7.60;79.96
73858;BME280;62195;55.030;73.278;2022-09-09T01:36:57;100604.16;;;7.70;79.12
73858;BME280;62195;55.030;73.278;2022-09-09T01:39:25;100612.53;;;7.82;78.87
73858;BME280;62195;55.030;73.278;2022-09-09T01:42:05;100614.00;;;7.92;78.90
73858;BME280;62195;55.030;73.278;2022-09-09T01:44:32;100611.91;;;8.03;78.90
73858;BME280;62195;55.030;73.278;2022-09-09T01:47:00;100619.41;;;8.14;78.65
73858;BME280;62195;55.030;73.278;2022-09-09T01:49:38;100616.56;;;8.22;78.06
73858;BME280;62195;55.030;73.278;2022-09-09T01:52:12;100617.25;;;8.29;77.96
73858;BME280;62195;55.030;73.278;2022-09-09T01:54:39;100616.22;;;8.35;78.10
73858;BME280;62195;55.030;73.278;2022-09-09T02:00:05;100619.34;;;8.46;78.19
73858;BME280;62195;55.030;73.278;2022-09-09T02:05:30;100607.75;;;8.55;77.09
73858;BME280;62195;55.030;73.278;2022-09-09T02:08:08;100611.00;;;8.62;77.94
73858;BME280;62195;55.030;73.278;2022-09-09T02:10:50;100607.34;;;8.67;77.23
73858;BME280;62195;55.030;73.278;2022-09-09T02:13:31;100604.56;;;8.72;76.43
73858;BME280;62195;55.030;73.278;2022-09-09T02:16:07;100609.72;;;8.75;76.92
73858;BME280;62195;55.030;73.278;2022-09-09T02:18:35;100607.81;;;8.80;77.64
73858;BME280;62195;55.030;73.278;2022-09-09T02:21:04;100606.00;;;8.82;77.35
73858;BME280;62195;55.030;73.278;2022-09-09T02:23:32;100605.28;;;8.77;76.58
73858;BME280;62195;55.030;73.278;2022-09-09T02:26:01;100606.28;;;8.73;76.39
73858;BME280;62195;55.030;73.278;2022-09-09T02:28:28;100610.88;;;8.66;77.09
73858;BME280;62195;55.030;73.278;2022-09-09T02:30:56;100605.69;;;8.65;76.93
73858;BME280;62195;55.030;73.278;2022-09-09T02:33:30;100612.78;;;8.61;76.95
73858;BME280;62195;55.030;73.278;2022-09-09T02:36:07;100608.19;;;8.68;76.99
73858;BME280;62195;55.030;73.278;2022-09-09T02:38:37;100610.69;;;8.73;76.73
73858;BME280;62195;55.030;73.278;2022-09-09T02:41:09;100606.16;;;8.78;76.17
73858;BME280;62195;55.030;73.278;2022-09-09T02:43:45;100600.66;;;8.86;76.19
73858;BME280;62195;55.030;73.278;2022-09-09T02:49:03;100600.81;;;9.06;75.99
73858;BME280;62195;55.030;73.278;2022-09-09T02:51:39;100604.84;;;9.17;76.29
73858;BME280;62195;55.030;73.278;2022-09-09T02:54:16;100600.97;;;9.27;75.06
73858;BME280;62195;55.030;73.278;2022-09-09T02:56:49;100596.25;;;9.37;75.75
73858;BME280;62195;55.030;73.278;2022-09-09T02:59:25;100595.91;;;9.48;74.45
73858;BME280;62195;55.030;73.278;2022-09-09T03:01:53;100591.22;;;9.56;75.03
73858;BME280;62195;55.030;73.278;2022-09-09T03:04:19;100596.03;;;9.67;74.22
73858;BME280;62195;55.030;73.278;2022-09-09T03:06:47;100592.22;;;9.76;73.69
73858;BME280;62195;55.030;73.278;2022-09-09T03:09:19;100582.25;;;9.86;74.00
73858;BME280;62195;55.030;73.278;2022-09-09T03:11:45;100592.28;;;9.98;73.44
73858;BME280;62195;55.030;73.278;2022-09-09T03:14:14;100587.53;;;10.08;74.19
73858;BME280;62195;55.030;73.278;2022-09-09T03:16:40;100592.41;;;10.17;74.46
73858;BME280;62195;55.030;73.278;2022-09-09T03:19:07;100586.78;;;10.27;73.49
73858;BME280;62195;55.030;73.278;2022-09-09T03:21:33;100581.19;;;10.36;74.18
73858;BME280;62195;55.030;73.278;2022-09-09T03:23:59;100580.78;;;10.47;73.18
73858;BME280;62195;55.030;73.278;2022-09-09T03:26:25;100585.59;;;10.58;72.44
73858;BME280;62195;55.030;73.278;2022-09-09T03:28:54;100572.00;;;10.69;72.69
73858;BME280;62195;55.030;73.278;2022-09-09T03:31:22;100573.28;;;10.81;72.93
73858;BME280;62195;55.030;73.278;2022-09-09T03:33:54;100576.25;;;10.94;72.17
73858;BME280;62195;55.030;73.278;2022-09-09T03:36:22;100571.44;;;11.04;72.05
73858;BME280;62195;55.030;73.278;2022-09-09T03:38:58;100577.94;;;11.16;71.67
73858;BME280;62195;55.030;73.278;2022-09-09T03:41:27;100568.66;;;11.28;71.38
73858;BME280;62195;55.030;73.278;2022-09-09T03:43:54;100572.56;;;11.38;71.80
73858;BME280;62195;55.030;73.278;2022-09-09T03:46:22;100576.50;;;11.48;71.27
73858;BME280;62195;55.030;73.278;2022-09-09T03:48:51;100571.66;;;11.58;70.09
73858;BME280;62195;55.030;73.278;2022-09-09T03:51:27;100581.78;;;11.68;70.64
73858;BME280;62195;55.030;73.278;2022-09-09T03:56:42;100571.81;;;11.94;70.06
73858;BME280;62195;55.030;73.278;2022-09-09T03:59:11;100568.72;;;12.04;69.41
73858;BME280;62195;55.030;73.278;2022-09-09T04:01:36;100570.91;;;12.14;69.04
73858;BME280;62195;55.030;73.278;2022-09-09T04:04:02;100568.69;;;12.24;68.83
73858;BME280;62195;55.030;73.278;2022-09-09T04:06:28;100576.06;;;12.35;68.54
73858;BME280;62195;55.030;73.278;2022-09-09T04:09:16;100571.03;;;12.48;68.56
73858;BME280;62195;55.030;73.278;2022-09-09T04:11:43;100579.34;;;12.57;68.02
73858;BME280;62195;55.030;73.278;2022-09-09T04:14:09;100582.44;;;12.66;66.83
73858;BME280;62195;55.030;73.278;2022-09-09T04:16:35;100583.69;;;12.76;66.86
73858;BME280;62195;55.030;73.278;2022-09-09T04:19:03;100576.19;;;12.86;66.90
73858;BME280;62195;55.030;73.278;2022-09-09T04:21:35;100580.94;;;12.95;66.07
73858;BME280;62195;55.030;73.278;2022-09-09T04:24:01;100577.09;;;13.03;65.54
73858;BME280;62195;55.030;73.278;2022-09-09T04:26:38;100574.81;;;13.13;65.36
73858;BME280;62195;55.030;73.278;2022-09-09T04:29:04;100584.09;;;13.20;65.16
73858;BME280;62195;55.030;73.278;2022-09-09T04:31:30;100587.97;;;13.30;65.45
73858;BME280;62195;55.030;73.278;2022-09-09T04:33:56;100578.66;;;13.41;63.92
73858;BME280;62195;55.030;73.278;2022-09-09T04:36:24;100582.53;;;13.51;62.87
73858;BME280;62195;55.030;73.278;2022-09-09T04:38:54;100581.09;;;13.61;63.56
73858;BME280;62195;55.030;73.278;2022-09-09T04:41:20;100576.09;;;13.73;63.79
73858;BME280;62195;55.030;73.278;2022-09-09T04:43:49;100571.69;;;13.89;62.07
73858;BME280;62195;55.030;73.278;2022-09-09T04:46:18;100565.53;;;14.05;62.39
73858;BME280;62195;55.030;73.278;2022-09-09T04:48:46;100562.97;;;14.20;62.19
73858;BME280;62195;55.030;73.278;2022-09-09T04:51:15;100558.75;;;14.31;61.63
73858;BME280;62195;55.030;73.278;2022-09-09T04:53:52;100561.19;;;14.51;60.51
73858;BME280;62195;55.030;73.278;2022-09-09T04:56:20;100567.13;;;14.70;58.72
73858;BME280;62195;55.030;73.278;2022-09-09T04:58:50;100553.19;;;14.83;57.65
73858;BME280;62195;55.030;73.278;2022-09-09T05:01:18;100555.69;;;14.86;58.97
73858;BME280;62195;55.030;73.278;2022-09-09T05:03:49;100550.09;;;14.91;59.03
73858;BME280;62195;55.030;73.278;2022-09-09T05:06:20;100546.44;;;14.93;59.27
73858;BME280;62195;55.030;73.278;2022-09-09T05:08:49;100546.59;;;14.90;58.96
73858;BME280;62195;55.030;73.278;2022-09-09T05:11:25;100540.94;;;14.82;58.54
73858;BME280;62195;55.030;73.278;2022-09-09T05:13:55;100547.53;;;14.75;59.67
73858;BME280;62195;55.030;73.278;2022-09-09T05:16:32;100537.47;;;14.65;59.83
73858;BME280;62195;55.030;73.278;2022-09-09T05:19:04;100537.84;;;14.59;59.89
73858;BME280;62195;55.030;73.278;2022-09-09T05:21:41;100540.84;;;14.53;59.49
73858;BME280;62195;55.030;73.278;2022-09-09T05:24:13;100536.00;;;14.45;59.57
73858;BME280;62195;55.030;73.278;2022-09-09T05:26:44;100531.16;;;14.37;59.77
73858;BME280;62195;55.030;73.278;2022-09-09T05:29:10;100523.41;;;14.34;60.67
73858;BME280;62195;55.030;73.278;2022-09-09T05:31:37;100520.97;;;14.31;60.45
73858;BME280;62195;55.030;73.278;2022-09-09T05:34:09;100516.97;;;14.24;60.32
73858;BME280;62195;55.030;73.278;2022-09-09T05:36:35;100519.78;;;14.21;59.96
73858;BME280;62195;55.030;73.278;2022-09-09T05:39:06;100520.72;;;14.20;58.88
73858;BME280;62195;55.030;73.278;2022-09-09T05:41:33;100523.97;;;14.25;58.74
73858;BME280;62195;55.030;73.278;2022-09-09T05:44:02;100521.53;;;14.36;59.44
73858;BME280;62195;55.030;73.278;2022-09-09T05:46:41;100527.22;;;14.44;58.73
73858;BME280;62195;55.030;73.278;2022-09-09T05:49:07;100534.47;;;14.41;57.86
73858;BME280;62195;55.030;73.278;2022-09-09T05:51:35;100545.41;;;14.35;58.81
73858;BME280;62195;55.030;73.278;2022-09-09T05:57:15;100554.81;;;14.08;58.93
73858;BME280;62195;55.030;73.278;2022-09-09T05:59:43;100552.69;;;13.99;58.46
73858;BME280;62195;55.030;73.278;2022-09-09T06:02:09;100552.75;;;13.97;59.10
73858;BME280;62195;55.030;73.278;2022-09-09T06:04:36;100558.75;;;14.01;58.41
73858;BME280;62195;55.030;73.278;2022-09-09T06:07:03;100553.13;;;14.07;59.49
73858;BME280;62195;55.030;73.278;2022-09-09T06:09:29;100542.00;;;14.16;59.41
73858;BME280;62195;55.030;73.278;2022-09-09T06:11:56;100525.50;;;14.29;59.29
73858;BME280;62195;55.030;73.278;2022-09-09T06:14:24;100521.34;;;14.39;58.17
73858;BME280;62195;55.030;73.278;2022-09-09T06:16:52;100521.22;;;14.57;58.29
73858;BME280;62195;55.030;73.278;2022-09-09T06:19:23;100515.47;;;14.65;58.66
73858;BME280;62195;55.030;73.278;2022-09-09T06:21:53;100503.88;;;14.67;58.81
73858;BME280;62195;55.030;73.278;2022-09-09T06:24:19;100507.28;;;14.69;58.05
73858;BME280;62195;55.030;73.278;2022-09-09T06:26:53;100498.41;;;14.70;57.87
73858;BME280;62195;55.030;73.278;2022-09-09T06:29:28;100427.97;;;14.26;57.92
73858;BME280;62195;55.030;73.278;2022-09-09T06:31:54;100492.47;;;14.67;57.29
73858;BME280;62195;55.030;73.278;2022-09-09T06:34:22;100486.31;;;14.66;58.05
73858;BME280;62195;55.030;73.278;2022-09-09T06:36:57;100483.59;;;14.68;57.65
73858;BME280;62195;55.030;73.278;2022-09-09T06:39:24;100476.19;;;14.75;56.84
73858;BME280;62195;55.030;73.278;2022-09-09T06:42:01;100470.31;;;14.69;56.92
73858;BME280;62195;55.030;73.278;2022-09-09T06:44:48;100472.75;;;14.73;56.46
73858;BME280;62195;55.030;73.278;2022-09-09T06:47:28;100468.06;;;14.78;56.07
73858;BME280;62195;55.030;73.278;2022-09-09T06:49:57;100452.31;;;14.91;56.35
73858;BME280;62195;55.030;73.278;2022-09-09T06:52:24;100450.31;;;15.09;56.28
73858;BME280;62195;55.030;73.278;2022-09-09T06:54:50;100437.53;;;15.30;55.97
73858;BME280;62195;55.030;73.278;2022-09-09T06:57:17;100424.72;;;15.51;53.11
73858;BME280;62195;55.030;73.278;2022-09-09T06:59:52;100424.44;;;15.56;53.23
73858;BME280;62195;55.030;73.278;2022-09-09T07:02:25;100431.31;;;15.59;52.75
73858;BME280;62195;55.030;73.278;2022-09-09T07:04:52;100419.44;;;15.51;53.18
73858;BME280;62195;55.030;73.278;2022-09-09T07:07:18;100415.66;;;15.56;53.74
73858;BME280;62195;55.030;73.278;2022-09-09T07:09:44;100407.75;;;15.69;53.48
73858;BME280;62195;55.030;73.278;2022-09-09T07:12:12;100397.00;;;15.85;52.76
73858;BME280;62195;55.030;73.278;2022-09-09T07:14:43;100408.41;;;16.00;53.11
73858;BME280;62195;55.030;73.278;2022-09-09T07:17:09;100396.56;;;16.06;50.58
73858;BME280;62195;55.030;73.278;2022-09-09T07:19:42;100386.94;;;16.04;50.67
73858;BME280;62195;55.030;73.278;2022-09-09T07:22:14;100384.91;;;16.08;50.65
73858;BME280;62195;55.030;73.278;2022-09-09T07:24:41;100383.88;;;16.11;49.06
73858;BME280;62195;55.030;73.278;2022-09-09T07:27:12;100389.88;;;16.13;50.24
73858;BME280;62195;55.030;73.278;2022-09-09T07:29:38;100380.03;;;16.15;49.39
73858;BME280;62195;55.030;73.278;2022-09-09T07:32:05;100374.31;;;16.21;50.32
73858;BME280;62195;55.030;73.278;2022-09-09T07:34:35;100362.56;;;16.25;50.37
73858;BME280;62195;55.030;73.278;2022-09-09T07:37:02;100350.47;;;16.34;50.58
73858;BME280;62195;55.030;73.278;2022-09-09T07:39:33;100353.56;;;16.41;50.32
73858;BME280;62195;55.030;73.278;2022-09-09T07:42:05;100350.81;;;16.55;50.44
73858;BME280;62195;55.030;73.278;2022-09-09T07:44:35;100341.03;;;16.69;50.50
73858;BME280;62195;55.030;73.278;2022-09-09T07:47:10;100343.97;;;16.77;50.00
73858;BME280;62195;55.030;73.278;2022-09-09T07:49:41;100337.50;;;16.81;48.92
73858;BME280;62195;55.030;73.278;2022-09-09T07:52:08;100332.63;;;16.75;49.48
73858;BME280;62195;55.030;73.278;2022-09-09T07:54:40;100333.06;;;16.82;48.91
73858;BME280;62195;55.030;73.278;2022-09-09T07:57:06;100331.75;;;16.88;48.68
73858;BME280;62195;55.030;73.278;2022-09-09T07:59:45;100321.66;;;16.93;47.70
73858;BME280;62195;55.030;73.278;2022-09-09T08:02:12;100317.41;;;16.90;46.32
73858;BME280;62195;55.030;73.278;2022-09-09T08:04:38;100315.53;;;16.92;47.76
73858;BME280;62195;55.030;73.278;2022-09-09T08:07:05;100305.53;;;16.96;45.89
73858;BME280;62195;55.030;73.278;2022-09-09T08:09:43;100307.66;;;17.04;44.56
73858;BME280;62195;55.030;73.278;2022-09-09T08:12:16;100304.69;;;17.08;45.71
73858;BME280;62195;55.030;73.278;2022-09-09T08:14:43;100295.28;;;17.16;46.07
73858;BME280;62195;55.030;73.278;2022-09-09T08:17:09;100284.03;;;17.25;46.50
73858;BME280;62195;55.030;73.278;2022-09-09T08:19:36;100285.25;;;17.32;46.67
73858;BME280;62195;55.030;73.278;2022-09-09T08:22:10;100283.97;;;17.38;45.88
73858;BME280;62195;55.030;73.278;2022-09-09T08:24:49;100279.97;;;17.44;45.51
73858;BME280;62195;55.030;73.278;2022-09-09T08:27:15;100269.88;;;17.49;46.57
73858;BME280;62195;55.030;73.278;2022-09-09T08:29:41;100268.78;;;17.51;45.48
73858;BME280;62195;55.030;73.278;2022-09-09T08:32:08;100263.97;;;17.57;43.63
73858;BME280;62195;55.030;73.278;2022-09-09T08:34:36;100265.31;;;17.62;44.08
73858;BME280;62195;55.030;73.278;2022-09-09T08:37:13;100260.63;;;17.66;44.67
73858;BME280;62195;55.030;73.278;2022-09-09T08:39:41;100248.09;;;17.68;45.36
73858;BME280;62195;55.030;73.278;2022-09-09T08:42:10;100247.38;;;17.66;44.90
73858;BME280;62195;55.030;73.278;2022-09-09T08:44:49;100249.16;;;17.65;43.52
73858;BME280;62195;55.030;73.278;2022-09-09T08:50:00;100242.38;;;17.61;43.95
73858;BME280;62195;55.030;73.278;2022-09-09T08:53:24;100246.50;;;17.65;42.85
73858;BME280;62195;55.030;73.278;2022-09-09T08:55:37;100246.41;;;17.67;42.69
73858;BME280;62195;55.030;73.278;2022-09-09T08:58:18;100243.63;;;17.69;43.07
73858;BME280;62195;55.030;73.278;2022-09-09T09:00:50;100232.03;;;17.70;43.56
73858;BME280;62195;55.030;73.278;2022-09-09T09:03:28;100226.84;;;17.68;43.59
73858;BME280;62195;55.030;73.278;2022-09-09T09:06:09;100225.78;;;17.71;44.19
73858;BME280;62195;55.030;73.278;2022-09-09T09:08:55;100216.34;;;17.78;43.64
73858;BME280;62195;55.030;73.278;2022-09-09T09:11:26;100220.00;;;17.88;43.01
73858;BME280;62195;55.030;73.278;2022-09-09T09:13:56;100216.84;;;17.95;43.24
73858;BME280;62195;55.030;73.278;2022-09-09T09:19:01;100214.69;;;18.00;42.37
73858;BME280;62195;55.030;73.278;2022-09-09T09:21:39;100212.75;;;18.02;43.29
73858;BME280;62195;55.030;73.278;2022-09-09T09:24:16;100207.00;;;18.08;41.36
73858;BME280;62195;55.030;73.278;2022-09-09T09:26:44;100213.41;;;18.17;41.02
73858;BME280;62195;55.030;73.278;2022-09-09T09:29:11;100194.91;;;18.27;39.08
73858;BME280;62195;55.030;73.278;2022-09-09T09:31:38;100204.34;;;18.31;39.27
73858;BME280;62195;55.030;73.278;2022-09-09T09:34:05;100191.03;;;18.31;38.04
73858;BME280;62195;55.030;73.278;2022-09-09T09:36:37;100184.88;;;18.30;38.87
73858;BME280;62195;55.030;73.278;2022-09-09T09:39:05;100185.25;;;18.26;39.31
73858;BME280;62195;55.030;73.278;2022-09-09T09:41:38;100183.31;;;18.16;37.54
73858;BME280;62195;55.030;73.278;2022-09-09T09:47:15;100171.97;;;18.03;38.75
73858;BME280;62195;55.030;73.278;2022-09-09T09:52:30;100172.31;;;17.87;39.16
73858;BME280;62195;55.030;73.278;2022-09-09T09:55:05;100170.88;;;17.83;39.26
73858;BME280;62195;55.030;73.278;2022-09-09T09:57:43;100166.50;;;17.82;40.08
73858;BME280;62195;55.030;73.278;2022-09-09T10:00:13;100157.94;;;17.78;40.49
73858;BME280;62195;55.030;73.278;2022-09-09T10:02:46;100158.44;;;17.72;41.32
73858;BME280;62195;55.030;73.278;2022-09-09T10:05:22;100157.47;;;17.61;41.36
73858;BME280;62195;55.030;73.278;2022-09-09T10:08:05;100165.19;;;17.53;41.52
73858;BME280;62195;55.030;73.278;2022-09-09T10:13:06;100158.88;;;17.43;41.88
73858;BME280;62195;55.030;73.278;2022-09-09T10:34:14;100143.22;;;17.62;41.77
73858;BME280;62195;55.030;73.278;2022-09-09T10:36:55;100143.59;;;17.69;41.68
73858;BME280;62195;55.030;73.278;2022-09-09T10:41:54;100147.31;;;17.89;41.96
73858;BME280;62195;55.030;73.278;2022-09-09T10:44:39;100147.31;;;18.01;40.37
73858;BME280;62195;55.030;73.278;2022-09-09T10:55:09;100151.22;;;18.08;41.41
73858;BME280;62195;55.030;73.278;2022-09-09T10:57:44;100147.59;;;18.21;40.99
73858;BME280;62195;55.030;73.278;2022-09-09T11:00:22;100144.03;;;18.31;40.06
73858;BME280;62195;55.030;73.278;2022-09-09T11:02:51;100157.22;;;18.33;39.44
73858;BME280;62195;55.030;73.278;2022-09-09T11:05:29;100141.03;;;18.25;39.43
73858;BME280;62195;55.030;73.278;2022-09-09T11:08:01;100152.53;;;18.14;38.51
73858;BME280;62195;55.030;73.278;2022-09-09T11:10:39;100148.28;;;18.00;39.09
73858;BME280;62195;55.030;73.278;2022-09-09T11:14:08;100145.75;;;17.87;40.26
73858;BME280;62195;55.030;73.278;2022-09-09T11:16:04;100150.09;;;17.76;40.32
73858;BME280;62195;55.030;73.278;2022-09-09T11:18:46;100141.91;;;17.68;40.60
73858;BME280;62195;55.030;73.278;2022-09-09T11:21:17;100147.81;;;17.60;40.11
73858;BME280;62195;55.030;73.278;2022-09-09T11:23:52;100147.31;;;17.55;40.47
73858;BME280;62195;55.030;73.278;2022-09-09T11:26:29;100148.28;;;17.54;40.50
73858;BME280;62195;55.030;73.278;2022-09-09T11:34:27;100147.81;;;17.49;41.25
73858;BME280;62195;55.030;73.278;2022-09-09T11:44:41;100152.38;;;17.35;40.22
73858;BME280;62195;55.030;73.278;2022-09-09T11:47:22;100155.25;;;17.32;39.58
73858;BME280;62195;55.030;73.278;2022-09-09T11:49:52;100162.59;;;17.29;39.84
73858;BME280;62195;55.030;73.278;2022-09-09T11:52:20;100163.06;;;17.22;39.84
73858;BME280;62195;55.030;73.278;2022-09-09T11:54:51;100160.53;;;17.21;39.17
73858;BME280;62195;55.030;73.278;2022-09-09T11:57:38;100155.22;;;17.21;39.14
73858;BME280;62195;55.030;73.278;2022-09-09T12:00:27;100158.00;;;17.19;39.58
73858;BME280;62195;55.030;73.278;2022-09-09T12:02:59;100160.88;;;17.16;39.43
73858;BME280;62195;55.030;73.278;2022-09-09T12:05:35;100158.56;;;17.11;38.92
73858;BME280;62195;55.030;73.278;2022-09-09T12:08:02;100159.78;;;17.07;38.93
73858;BME280;62195;55.030;73.278;2022-09-09T12:10:30;100152.16;;;17.03;39.69
73858;BME280;62195;55.030;73.278;2022-09-09T12:13:18;100165.97;;;16.95;40.04
73858;BME280;62195;55.030;73.278;2022-09-09T12:15:48;100156.66;;;16.89;39.67
73858;BME280;62195;55.030;73.278;2022-09-09T12:18:21;100159.66;;;16.84;40.39
73858;BME280;62195;55.030;73.278;2022-09-09T12:23:48;100150.19;;;16.69;41.36
73858;BME280;62195;55.030;73.278;2022-09-09T12:26:23;100157.13;;;16.58;41.29
73858;BME280;62195;55.030;73.278;2022-09-09T12:36:55;100158.75;;;16.48;41.79
73858;BME280;62195;55.030;73.278;2022-09-09T12:39:29;100163.44;;;16.44;40.81
73858;BME280;62195;55.030;73.278;2022-09-09T12:42:20;100166.94;;;16.45;41.14
73858;BME280;62195;55.030;73.278;2022-09-09T12:44:56;100160.16;;;16.41;41.84
73858;BME280;62195;55.030;73.278;2022-09-09T12:47:39;100155.09;;;16.38;41.76
73858;BME280;62195;55.030;73.278;2022-09-09T12:50:14;100165.19;;;16.33;42.06
73858;BME280;62195;55.030;73.278;2022-09-09T12:52:42;100169.84;;;16.29;42.47
73858;BME280;62195;55.030;73.278;2022-09-09T12:55:15;100160.31;;;16.26;41.90
73858;BME280;62195;55.030;73.278;2022-09-09T12:57:42;100170.06;;;16.26;42.73
73858;BME280;62195;55.030;73.278;2022-09-09T13:00:15;100166.81;;;16.22;42.66
73858;BME280;62195;55.030;73.278;2022-09-09T13:02:46;100166.28;;;16.17;42.79
73858;BME280;62195;55.030;73.278;2022-09-09T13:05:21;100171.25;;;16.09;43.47
73858;BME280;62195;55.030;73.278;2022-09-09T13:08:00;100174.34;;;16.02;43.65
73858;BME280;62195;55.030;73.278;2022-09-09T13:10:28;100175.03;;;15.93;44.12
73858;BME280;62195;55.030;73.278;2022-09-09T13:12:56;100176.44;;;15.84;44.28
73858;BME280;62195;55.030;73.278;2022-09-09T13:15:24;100180.50;;;15.77;44.52
73858;BME280;62195;55.030;73.278;2022-09-09T13:17:54;100175.00;;;15.67;44.71
73858;BME280;62195;55.030;73.278;2022-09-09T13:20:26;100183.47;;;15.59;44.80
73858;BME280;62195;55.030;73.278;2022-09-09T13:22:53;100174.34;;;15.50;45.32
73858;BME280;62195;55.030;73.278;2022-09-09T13:25:24;100180.50;;;15.38;45.96
73858;BME280;62195;55.030;73.278;2022-09-09T13:28:02;100178.69;;;15.26;46.47
73858;BME280;62195;55.030;73.278;2022-09-09T13:30:29;100178.56;;;15.14;46.74
73858;BME280;62195;55.030;73.278;2022-09-09T13:33:01;100194.28;;;15.03;47.42
73858;BME280;62195;55.030;73.278;2022-09-09T13:35:32;100190.75;;;14.89;47.54
73858;BME280;62195;55.030;73.278;2022-09-09T13:38:08;100192.28;;;14.79;47.15
73858;BME280;62195;55.030;73.278;2022-09-09T13:40:35;100194.97;;;14.64;48.38
73858;BME280;62195;55.030;73.278;2022-09-09T13:43:02;100198.19;;;14.55;47.77
73858;BME280;62195;55.030;73.278;2022-09-09T13:45:28;100197.53;;;14.51;47.42
73858;BME280;62195;55.030;73.278;2022-09-09T13:47:55;100202.91;;;14.50;47.96
73858;BME280;62195;55.030;73.278;2022-09-09T13:50:32;100200.47;;;14.47;48.20
73858;BME280;62195;55.030;73.278;2022-09-09T13:52:58;100203.50;;;14.40;47.71
73858;BME280;62195;55.030;73.278;2022-09-09T13:55:35;100204.81;;;14.33;48.74
73858;BME280;62195;55.030;73.278;2022-09-09T13:58:02;100206.06;;;14.27;48.80
73858;BME280;62195;55.030;73.278;2022-09-09T14:00:29;100212.56;;;14.22;49.16
73858;BME280;62195;55.030;73.278;2022-09-09T14:03:00;100216.53;;;14.14;49.30
73858;BME280;62195;55.030;73.278;2022-09-09T14:05:30;100213.63;;;14.04;49.31
73858;BME280;62195;55.030;73.278;2022-09-09T14:08:03;100218.53;;;13.96;49.55
73858;BME280;62195;55.030;73.278;2022-09-09T14:10:30;100215.53;;;13.88;49.67
73858;BME280;62195;55.030;73.278;2022-09-09T14:13:01;100218.78;;;13.77;49.88
73858;BME280;62195;55.030;73.278;2022-09-09T14:15:27;100221.06;;;13.69;50.10
73858;BME280;62195;55.030;73.278;2022-09-09T14:17:59;100226.72;;;13.62;50.07
73858;BME280;62195;55.030;73.278;2022-09-09T14:20:25;100227.06;;;13.56;50.65
73858;BME280;62195;55.030;73.278;2022-09-09T14:22:52;100231.00;;;13.49;50.69
73858;BME280;62195;55.030;73.278;2022-09-09T14:25:18;100226.25;;;13.40;50.94
73858;BME280;62195;55.030;73.278;2022-09-09T14:27:54;100223.19;;;13.31;51.27
73858;BME280;62195;55.030;73.278;2022-09-09T14:30:21;100233.34;;;13.23;51.50
73858;BME280;62195;55.030;73.278;2022-09-09T14:32:52;100241.78;;;13.14;51.88
73858;BME280;62195;55.030;73.278;2022-09-09T14:35:18;100232.63;;;13.05;52.33
73858;BME280;62195;55.030;73.278;2022-09-09T14:37:45;100239.25;;;12.96;52.49
73858;BME280;62195;55.030;73.278;2022-09-09T14:40:12;100232.66;;;12.89;52.54
73858;BME280;62195;55.030;73.278;2022-09-09T14:42:47;100238.28;;;12.82;53.26
73858;BME280;62195;55.030;73.278;2022-09-09T14:45:13;100238.63;;;12.76;53.15
73858;BME280;62195;55.030;73.278;2022-09-09T14:47:39;100238.94;;;12.70;53.16
73858;BME280;62195;55.030;73.278;2022-09-09T14:50:05;100237.56;;;12.63;53.74
73858;BME280;62195;55.030;73.278;2022-09-09T14:52:31;100236.97;;;12.57;54.01
73858;BME280;62195;55.030;73.278;2022-09-09T14:54:57;100240.91;;;12.50;54.11